sensor_id;sensor_type;location;lat;lon;timestamp;pressure;altitude;pressure_sealevel;temperature;humidity
56518;BME280;42419;48.760;2.322;2023-04-20T00:00:17;100882.09;;;23.89;31.09
56518;BME280;42419;48.760;2.322;2023-04-20T00:02:46;100876.84;;;23.87;30.86
56518;BME280;42419;48.760;2.322;2023-04-20T00:05:11;100880.28;;;23.89;31.11
56518;BME280;42419;48.760;2.322;2023-04-20T00:07:37;100865.81;;;23.92;30.90
56518;BME280;42419;48.760;2.322;2023-04-20T00:10:03;100871.97;;;23.94;30.64
56518;BME280;42419;48.760;2.322;2023-04-20T00:12:30;100867.47;;;23.94;30.45
56518;BME280;42419;48.760;2.322;2023-04-20T00:14:55;100865.66;;;23.95;30.53
56518;BME280;42419;48.760;2.322;2023-04-20T00:17:21;100855.31;;;23.87;31.25
56518;BME280;42419;48.760;2.322;2023-04-20T00:19:46;100869.28;;;23.94;30.59
56518;BME280;42419;48.760;2.322;2023-04-20T00:22:12;100868.34;;;23.95;31.09
56518;BME280;42419;48.760;2.322;2023-04-20T00:24:37;100867.41;;;23.96;31.03
56518;BME280;42419;48.760;2.322;2023-04-20T00:27:03;100868.16;;;23.98;30.21
56518;BME280;42419;48.760;2.322;2023-04-20T00:29:28;100851.59;;;23.90;31.00
56518;BME280;42419;48.760;2.322;2023-04-20T00:31:53;100861.84;;;23.99;30.16
56518;BME280;42419;48.760;2.322;2023-04-20T00:34:19;100864.47;;;24.00;30.21
56518;BME280;42419;48.760;2.322;2023-04-20T00:36:44;100858.91;;;24.03;30.17
56518;BME280;42419;48.760;2.322;2023-04-20T00:39:10;100850.13;;;24.00;30.63
56518;BME280;42419;48.760;2.322;2023-04-20T00:41:35;100848.06;;;24.05;30.56
56518;BME280;42419;48.760;2.322;2023-04-20T00:44:00;100842.06;;;24.00;30.24
56518;BME280;42419;48.760;2.322;2023-04-20T00:46:26;100837.47;;;24.02;30.35
56518;BME280;42419;48.760;2.322;2023-04-20T00:48:52;100845.22;;;24.08;30.55
56518;BME280;42419;48.760;2.322;2023-04-20T00:51:19;100843.28;;;24.10;30.24
56518;BME280;42419;48.760;2.322;2023-04-20T00:53:45;100844.25;;;24.09;30.52
56518;BME280;42419;48.760;2.322;2023-04-20T00:56:12;100835.13;;;24.11;29.74
56518;BME280;42419;48.760;2.322;2023-04-20T00:58:38;100838.63;;;24.13;29.68
56518;BME280;42419;48.760;2.322;2023-04-20T01:01:04;100839.41;;;24.15;29.80
56518;BME280;42419;48.760;2.322;2023-04-20T01:03:30;100831.25;;;24.17;29.61
56518;BME280;42419;48.760;2.322;2023-04-20T01:05:55;100832.00;;;24.19;29.72
56518;BME280;42419;48.760;2.322;2023-04-20T01:08:25;100834.63;;;24.21;29.69
56518;BME280;42419;48.760;2.322;2023-04-20T01:10:50;100834.63;;;24.21;29.52
56518;BME280;42419;48.760;2.322;2023-04-20T01:13:15;100835.50;;;24.21;29.55
56518;BME280;42419;48.760;2.322;2023-04-20T01:15:41;100828.19;;;24.23;29.26
56518;BME280;42419;48.760;2.322;2023-04-20T01:18:06;100830.13;;;24.21;29.54
56518;BME280;42419;48.760;2.322;2023-04-20T01:20:31;100821.97;;;24.23;29.16
56518;BME280;42419;48.760;2.322;2023-04-20T01:22:57;100824.56;;;24.24;29.65
56518;BME280;42419;48.760;2.322;2023-04-20T01:25:22;100820.06;;;24.25;29.52
56518;BME280;42419;48.760;2.322;2023-04-20T01:27:47;100794.53;;;24.16;29.49
56518;BME280;42419;48.760;2.322;2023-04-20T01:30:13;100812.84;;;24.25;29.45
56518;BME280;42419;48.760;2.322;2023-04-20T01:32:39;100816.41;;;24.26;29.52
56518;BME280;42419;48.760;2.322;2023-04-20T01:35:05;100813.53;;;24.29;29.17
56518;BME280;42419;48.760;2.322;2023-04-20T01:37:31;100810.97;;;24.27;29.09
56518;BME280;42419;48.760;2.322;2023-04-20T01:39:56;100801.75;;;24.31;29.34
56518;BME280;42419;48.760;2.322;2023-04-20T01:42:23;100807.13;;;24.31;29.04
56518;BME280;42419;48.760;2.322;2023-04-20T01:44:48;100804.44;;;24.31;29.34
56518;BME280;42419;48.760;2.322;2023-04-20T01:47:14;100784.31;;;24.23;29.09
56518;BME280;42419;48.760;2.322;2023-04-20T01:49:40;100802.53;;;24.33;28.91
56518;BME280;42419;48.760;2.322;2023-04-20T01:57:14;100787.31;;;24.32;28.91
56518;BME280;42419;48.760;2.322;2023-04-20T01:59:39;100790.63;;;24.37;28.60
56518;BME280;42419;48.760;2.322;2023-04-20T02:02:05;100795.84;;;24.40;28.86
56518;BME280;42419;48.760;2.322;2023-04-20T02:04:30;100797.56;;;24.41;28.69
56518;BME280;42419;48.760;2.322;2023-04-20T02:06:55;100793.94;;;24.42;28.87
56518;BME280;42419;48.760;2.322;2023-04-20T02:09:20;100795.66;;;24.43;28.87
56518;BME280;42419;48.760;2.322;2023-04-20T02:11:46;100803.66;;;24.45;29.06
56518;BME280;42419;48.760;2.322;2023-04-20T02:14:11;100799.06;;;24.47;28.70
56518;BME280;42419;48.760;2.322;2023-04-20T02:16:36;100802.56;;;24.49;28.43
56518;BME280;42419;48.760;2.322;2023-04-20T02:19:02;100805.16;;;24.50;28.64
56518;BME280;42419;48.760;2.322;2023-04-20T02:21:27;100788.53;;;24.42;28.67
56518;BME280;42419;48.760;2.322;2023-04-20T02:23:52;100807.69;;;24.53;28.30
56518;BME280;42419;48.760;2.322;2023-04-20T02:26:18;100788.47;;;24.44;28.65
56518;BME280;42419;48.760;2.322;2023-04-20T02:28:43;100778.84;;;24.40;28.20
56518;BME280;42419;48.760;2.322;2023-04-20T02:31:09;100809.25;;;24.57;28.02
56518;BME280;42419;48.760;2.322;2023-04-20T02:33:34;100803.00;;;24.57;28.28
56518;BME280;42419;48.760;2.322;2023-04-20T02:35:59;100778.47;;;24.46;28.12
56518;BME280;42419;48.760;2.322;2023-04-20T02:38:25;100813.72;;;24.73;28.03
56518;BME280;42419;48.760;2.322;2023-04-20T02:40:50;100808.59;;;24.84;28.11
56518;BME280;42419;48.760;2.322;2023-04-20T02:43:15;100801.88;;;24.91;27.60
56518;BME280;42419;48.760;2.322;2023-04-20T02:45:41;100814.41;;;24.92;27.66
56518;BME280;42419;48.760;2.322;2023-04-20T02:48:06;100813.38;;;24.94;27.81
56518;BME280;42419;48.760;2.322;2023-04-20T02:50:31;100817.78;;;24.95;27.85
56518;BME280;42419;48.760;2.322;2023-04-20T02:52:57;100814.13;;;24.96;27.63
56518;BME280;42419;48.760;2.322;2023-04-20T02:55:22;100809.63;;;24.97;27.83
56518;BME280;42419;48.760;2.322;2023-04-20T02:57:47;100821.28;;;24.97;27.38
56518;BME280;42419;48.760;2.322;2023-04-20T03:00:13;100792.38;;;24.85;27.37
56518;BME280;42419;48.760;2.322;2023-04-20T03:02:40;100762.94;;;24.67;27.64
56518;BME280;42419;48.760;2.322;2023-04-20T03:05:06;100822.22;;;24.96;27.36
56518;BME280;42419;48.760;2.322;2023-04-20T03:07:31;100807.13;;;24.94;27.47
56518;BME280;42419;48.760;2.322;2023-04-20T03:09:57;100818.75;;;24.94;27.48
56518;BME280;42419;48.760;2.322;2023-04-20T03:12:22;100814.34;;;24.93;27.59
56518;BME280;42419;48.760;2.322;2023-04-20T03:14:48;100766.06;;;24.59;27.48
56518;BME280;42419;48.760;2.322;2023-04-20T03:17:16;100819.72;;;24.93;27.05
56518;BME280;42419;48.760;2.322;2023-04-20T03:19:41;100817.03;;;24.93;27.43
56518;BME280;42419;48.760;2.322;2023-04-20T03:22:07;100813.47;;;24.93;27.25
56518;BME280;42419;48.760;2.322;2023-04-20T03:24:33;100818.84;;;24.93;27.09
56518;BME280;42419;48.760;2.322;2023-04-20T03:26:58;100826.84;;;24.94;27.64
56518;BME280;42419;48.760;2.322;2023-04-20T03:29:23;100822.41;;;24.93;27.49
56518;BME280;42419;48.760;2.322;2023-04-20T03:31:49;100810.75;;;24.93;27.55
56518;BME280;42419;48.760;2.322;2023-04-20T03:34:14;100816.16;;;24.93;27.56
56518;BME280;42419;48.760;2.322;2023-04-20T03:36:39;100798.03;;;24.81;27.60
56518;BME280;42419;48.760;2.322;2023-04-20T03:39:05;100808.06;;;24.93;27.60
56518;BME280;42419;48.760;2.322;2023-04-20T03:41:30;100771.03;;;24.67;27.53
56518;BME280;42419;48.760;2.322;2023-04-20T03:43:56;100806.31;;;24.92;27.15
56518;BME280;42419;48.760;2.322;2023-04-20T03:46:21;100798.72;;;24.84;27.50
56518;BME280;42419;48.760;2.322;2023-04-20T03:48:46;100803.63;;;24.92;27.46
56518;BME280;42419;48.760;2.322;2023-04-20T03:51:12;100815.28;;;24.92;27.00
56518;BME280;42419;48.760;2.322;2023-04-20T03:53:37;100808.94;;;24.93;27.48
56518;BME280;42419;48.760;2.322;2023-04-20T03:56:02;100813.38;;;24.94;27.45
56518;BME280;42419;48.760;2.322;2023-04-20T03:58:28;100807.13;;;24.94;26.89
56518;BME280;42419;48.760;2.322;2023-04-20T04:01:00;100810.56;;;24.96;26.93
56518;BME280;42419;48.760;2.322;2023-04-20T04:03:25;100809.81;;;24.94;27.41
56518;BME280;42419;48.760;2.322;2023-04-20T04:05:51;100813.19;;;24.97;27.25
56518;BME280;42419;48.760;2.322;2023-04-20T04:08:16;100818.56;;;24.97;27.18
56518;BME280;42419;48.760;2.322;2023-04-20T04:10:41;100818.47;;;24.99;27.17
56518;BME280;42419;48.760;2.322;2023-04-20T04:13:07;100819.44;;;24.98;27.38
56518;BME280;42419;48.760;2.322;2023-04-20T04:15:32;100815.88;;;24.97;26.96
56518;BME280;42419;48.760;2.322;2023-04-20T04:17:57;100821.06;;;25.00;27.04
56518;BME280;42419;48.760;2.322;2023-04-20T04:20:23;100826.28;;;25.03;26.71
56518;BME280;42419;48.760;2.322;2023-04-20T04:22:48;100825.31;;;25.04;27.30
56518;BME280;42419;48.760;2.322;2023-04-20T04:25:13;100833.31;;;25.06;26.60
56518;BME280;42419;48.760;2.322;2023-04-20T04:27:39;100840.47;;;25.07;27.04
56518;BME280;42419;48.760;2.322;2023-04-20T04:30:05;100831.38;;;25.08;26.76
56518;BME280;42419;48.760;2.322;2023-04-20T04:32:30;100820.81;;;25.05;26.86
56518;BME280;42419;48.760;2.322;2023-04-20T04:34:58;100814.06;;;24.98;26.79
56518;BME280;42419;48.760;2.322;2023-04-20T04:37:25;100838.28;;;25.14;26.89
56518;BME280;42419;48.760;2.322;2023-04-20T04:39:51;100807.88;;;24.96;26.51
56518;BME280;42419;48.760;2.322;2023-04-20T04:42:16;100814.06;;;24.98;26.43
56518;BME280;42419;48.760;2.322;2023-04-20T04:44:41;100847.06;;;25.17;26.44
56518;BME280;42419;48.760;2.322;2023-04-20T04:47:07;100848.78;;;25.18;26.44
56518;BME280;42419;48.760;2.322;2023-04-20T04:49:33;100822.75;;;25.03;26.41
56518;BME280;42419;48.760;2.322;2023-04-20T04:51:59;100851.41;;;25.20;26.45
56518;BME280;42419;48.760;2.322;2023-04-20T04:54:25;100839.41;;;25.10;26.18
56518;BME280;42419;48.760;2.322;2023-04-20T04:56:51;100833.13;;;25.09;26.19
56518;BME280;42419;48.760;2.322;2023-04-20T04:59:16;100855.72;;;25.22;25.98
56518;BME280;42419;48.760;2.322;2023-04-20T05:01:41;100855.72;;;25.22;26.37
56518;BME280;42419;48.760;2.322;2023-04-20T05:04:06;100861.03;;;25.24;25.97
56518;BME280;42419;48.760;2.322;2023-04-20T05:06:32;100856.88;;;25.18;26.09
56518;BME280;42419;48.760;2.322;2023-04-20T05:08:57;100866.72;;;25.19;26.63
56518;BME280;42419;48.760;2.322;2023-04-20T05:11:23;100868.53;;;25.19;26.15
56518;BME280;42419;48.760;2.322;2023-04-20T05:13:48;100858.34;;;25.08;26.92
56518;BME280;42419;48.760;2.322;2023-04-20T05:16:14;100873.44;;;25.12;26.74
56518;BME280;42419;48.760;2.322;2023-04-20T05:18:39;100875.41;;;25.24;26.58
56518;BME280;42419;48.760;2.322;2023-04-20T05:21:04;100813.66;;;24.90;26.27
56518;BME280;42419;48.760;2.322;2023-04-20T05:23:30;100873.47;;;25.26;26.59
56518;BME280;42419;48.760;2.322;2023-04-20T05:25:55;100881.81;;;25.22;26.85
56518;BME280;42419;48.760;2.322;2023-04-20T05:28:21;100861.84;;;25.10;26.69
56518;BME280;42419;48.760;2.322;2023-04-20T05:30:46;100877.28;;;25.22;27.15
56518;BME280;42419;48.760;2.322;2023-04-20T05:33:11;100879.13;;;25.22;26.83
56518;BME280;42419;48.760;2.322;2023-04-20T05:35:36;100862.78;;;25.09;26.95
56518;BME280;42419;48.760;2.322;2023-04-20T05:38:04;100885.50;;;25.21;27.28
56518;BME280;42419;48.760;2.322;2023-04-20T05:40:30;100884.44;;;25.23;26.92
56518;BME280;42419;48.760;2.322;2023-04-20T05:42:56;100889.06;;;25.21;26.91
56518;BME280;42419;48.760;2.322;2023-04-20T05:45:21;100892.72;;;25.20;27.50
56518;BME280;42419;48.760;2.322;2023-04-20T05:47:56;100884.50;;;25.22;26.99
56518;BME280;42419;48.760;2.322;2023-04-20T05:50:23;100890.22;;;25.31;26.97
56518;BME280;42419;48.760;2.322;2023-04-20T05:52:49;100882.41;;;25.27;27.26
56518;BME280;42419;48.760;2.322;2023-04-20T05:55:14;100897.03;;;25.23;27.41
56518;BME280;42419;48.760;2.322;2023-04-20T05:57:40;100895.34;;;25.36;27.24
56518;BME280;42419;48.760;2.322;2023-04-20T06:00:11;100879.03;;;25.23;27.01
56518;BME280;42419;48.760;2.322;2023-04-20T06:02:37;100905.88;;;25.40;27.19
56518;BME280;42419;48.760;2.322;2023-04-20T06:05:03;100887.44;;;25.33;25.79
56518;BME280;42419;48.760;2.322;2023-04-20T06:07:28;100907.09;;;25.35;25.87
56518;BME280;42419;48.760;2.322;2023-04-20T06:09:53;100887.03;;;25.25;25.47
56518;BME280;42419;48.760;2.322;2023-04-20T06:12:19;100877.50;;;25.19;26.02
56518;BME280;42419;48.760;2.322;2023-04-20T06:14:44;100901.00;;;25.31;25.98
56518;BME280;42419;48.760;2.322;2023-04-20T06:17:09;100878.44;;;25.18;25.64
56518;BME280;42419;48.760;2.322;2023-04-20T06:19:35;100886.66;;;25.31;26.39
56518;BME280;42419;48.760;2.322;2023-04-20T06:22:07;100884.94;;;25.30;26.10
56518;BME280;42419;48.760;2.322;2023-04-20T06:24:34;100888.47;;;25.30;26.39
56518;BME280;42419;48.760;2.322;2023-04-20T06:26:59;100895.63;;;25.31;26.20
56518;BME280;42419;48.760;2.322;2023-04-20T06:29:26;100887.66;;;25.30;26.69
56518;BME280;42419;48.760;2.322;2023-04-20T06:31:51;100879.63;;;25.28;26.22
56518;BME280;42419;48.760;2.322;2023-04-20T06:34:17;100883.09;;;25.30;26.66
56518;BME280;42419;48.760;2.322;2023-04-20T06:36:42;100887.72;;;25.28;26.35
56518;BME280;42419;48.760;2.322;2023-04-20T06:39:08;100883.22;;;25.29;23.85
56518;BME280;42419;48.760;2.322;2023-04-20T06:41:33;100874.06;;;25.31;22.60
56518;BME280;42419;48.760;2.322;2023-04-20T06:43:58;100883.69;;;25.35;23.36
56518;BME280;42419;48.760;2.322;2023-04-20T06:46:24;100886.06;;;25.26;24.15
56518;BME280;42419;48.760;2.322;2023-04-20T06:48:49;100882.34;;;25.28;25.10
56518;BME280;42419;48.760;2.322;2023-04-20T06:51:14;100882.53;;;25.25;25.36
56518;BME280;42419;48.760;2.322;2023-04-20T06:53:39;100882.41;;;25.27;25.40
56518;BME280;42419;48.760;2.322;2023-04-20T06:56:05;100891.56;;;25.24;25.09
56518;BME280;42419;48.760;2.322;2023-04-20T06:58:30;100893.38;;;25.24;25.66
56518;BME280;42419;48.760;2.322;2023-04-20T07:00:56;100887.91;;;25.25;25.35
56518;BME280;42419;48.760;2.322;2023-04-20T07:03:21;100882.59;;;25.24;25.73
56518;BME280;42419;48.760;2.322;2023-04-20T07:05:46;100883.47;;;25.24;25.21
56518;BME280;42419;48.760;2.322;2023-04-20T07:08:12;100887.91;;;25.25;25.27
56518;BME280;42419;48.760;2.322;2023-04-20T07:10:39;100858.53;;;25.05;25.52
56518;BME280;42419;48.760;2.322;2023-04-20T07:13:04;100880.25;;;25.18;25.60
56518;BME280;42419;48.760;2.322;2023-04-20T07:15:30;100873.66;;;25.23;25.54
56518;BME280;42419;48.760;2.322;2023-04-20T07:17:55;100881.00;;;25.35;25.45
56518;BME280;42419;48.760;2.322;2023-04-20T07:20:20;100882.16;;;25.31;25.31
56518;BME280;42419;48.760;2.322;2023-04-20T07:22:46;100886.84;;;25.28;26.02
56518;BME280;42419;48.760;2.322;2023-04-20T07:25:12;100886.31;;;25.37;25.86
56518;BME280;42419;48.760;2.322;2023-04-20T07:27:39;100882.66;;;25.38;25.32
56518;BME280;42419;48.760;2.322;2023-04-20T07:30:05;100886.59;;;25.32;25.48
56518;BME280;42419;48.760;2.322;2023-04-20T07:32:32;100888.31;;;25.33;26.00
56518;BME280;42419;48.760;2.322;2023-04-20T07:34:57;100885.78;;;25.30;25.99
56518;BME280;42419;48.760;2.322;2023-04-20T07:37:23;100887.66;;;25.30;25.67
56518;BME280;42419;48.760;2.322;2023-04-20T07:39:50;100873.47;;;25.26;26.03
56518;BME280;42419;48.760;2.322;2023-04-20T07:42:16;100877.28;;;25.38;25.50
56518;BME280;42419;48.760;2.322;2023-04-20T07:44:41;100878.53;;;25.46;26.00
56518;BME280;42419;48.760;2.322;2023-04-20T07:47:06;100887.41;;;25.48;25.86
56518;BME280;42419;48.760;2.322;2023-04-20T07:49:35;100875.66;;;25.49;25.63
56518;BME280;42419;48.760;2.322;2023-04-20T07:52:01;100869.31;;;25.51;25.65
56518;BME280;42419;48.760;2.322;2023-04-20T07:54:27;100873.06;;;25.48;25.72
56518;BME280;42419;48.760;2.322;2023-04-20T07:56:52;100873.91;;;25.48;26.18
56518;BME280;42419;48.760;2.322;2023-04-20T07:59:18;100873.34;;;25.43;25.74
56518;BME280;42419;48.760;2.322;2023-04-20T08:01:44;100874.19;;;25.44;25.83
56518;BME280;42419;48.760;2.322;2023-04-20T08:04:10;100857.88;;;25.31;26.20
56518;BME280;42419;48.760;2.322;2023-04-20T08:06:36;100872.75;;;25.38;25.92
56518;BME280;42419;48.760;2.322;2023-04-20T08:09:01;100864.81;;;25.35;26.51
56518;BME280;42419;48.760;2.322;2023-04-20T08:11:27;100840.63;;;25.20;26.19
56518;BME280;42419;48.760;2.322;2023-04-20T08:13:53;100868.78;;;25.30;26.62
56518;BME280;42419;48.760;2.322;2023-04-20T08:16:18;100858.28;;;25.25;26.36
56518;BME280;42419;48.760;2.322;2023-04-20T08:18:46;100869.13;;;25.24;26.56
56518;BME280;42419;48.760;2.322;2023-04-20T08:21:12;100864.81;;;25.21;26.84
56518;BME280;42419;48.760;2.322;2023-04-20T08:23:37;100861.41;;;25.18;26.18
56518;BME280;42419;48.760;2.322;2023-04-20T08:26:03;100858.81;;;25.16;26.72
56518;BME280;42419;48.760;2.322;2023-04-20T08:28:28;100866.03;;;25.16;26.94
56518;BME280;42419;48.760;2.322;2023-04-20T08:30:53;100853.59;;;25.13;26.89
56518;BME280;42419;48.760;2.322;2023-04-20T08:33:19;100842.09;;;25.10;26.91
56518;BME280;42419;48.760;2.322;2023-04-20T08:35:44;100847.31;;;25.13;26.67
56518;BME280;42419;48.760;2.322;2023-04-20T08:38:10;100844.56;;;25.14;26.38
56518;BME280;42419;48.760;2.322;2023-04-20T08:40:36;100842.91;;;25.12;26.36
56518;BME280;42419;48.760;2.322;2023-04-20T08:43:02;100813.19;;;24.97;26.28
56518;BME280;42419;48.760;2.322;2023-04-20T08:45:28;100843.00;;;25.10;26.75
56518;BME280;42419;48.760;2.322;2023-04-20T08:47:56;100841.41;;;25.06;26.80
56518;BME280;42419;48.760;2.322;2023-04-20T08:50:22;100845.84;;;25.07;26.39
56518;BME280;42419;48.760;2.322;2023-04-20T08:52:47;100840.22;;;25.12;26.35
56518;BME280;42419;48.760;2.322;2023-04-20T08:55:17;100846.38;;;25.14;25.80
56518;BME280;42419;48.760;2.322;2023-04-20T08:57:43;100821.00;;;25.02;26.17
56518;BME280;42419;48.760;2.322;2023-04-20T09:00:08;100839.06;;;25.16;26.20
56518;BME280;42419;48.760;2.322;2023-04-20T09:02:36;100836.47;;;25.14;26.06
56518;BME280;42419;48.760;2.322;2023-04-20T09:05:02;100839.25;;;25.13;26.29
56518;BME280;42419;48.760;2.322;2023-04-20T09:07:28;100834.91;;;25.10;26.10
56518;BME280;42419;48.760;2.322;2023-04-20T09:09:59;100831.25;;;25.11;25.98
56518;BME280;42419;48.760;2.322;2023-04-20T09:12:25;100825.00;;;25.11;26.06
56518;BME280;42419;48.760;2.322;2023-04-20T09:14:51;100828.69;;;25.08;25.96
56518;BME280;42419;48.760;2.322;2023-04-20T09:17:29;100807.28;;;24.91;26.44
56518;BME280;42419;48.760;2.322;2023-04-20T09:19:55;100827.34;;;25.01;26.53
56518;BME280;42419;48.760;2.322;2023-04-20T09:22:31;100810.97;;;24.90;26.43
56518;BME280;42419;48.760;2.322;2023-04-20T09:24:57;100811.97;;;25.03;26.88
56518;BME280;42419;48.760;2.322;2023-04-20T09:27:22;100812.13;;;25.00;26.74
56518;BME280;42419;48.760;2.322;2023-04-20T09:29:59;100778.19;;;24.82;27.02
56518;BME280;42419;48.760;2.322;2023-04-20T09:32:26;100799.59;;;24.99;26.52
56518;BME280;42419;48.760;2.322;2023-04-20T09:34:56;100804.22;;;24.97;26.56
56518;BME280;42419;48.760;2.322;2023-04-20T09:37:21;100782.28;;;24.89;26.66
56518;BME280;42419;48.760;2.322;2023-04-20T09:39:47;100805.88;;;24.99;27.01
56518;BME280;42419;48.760;2.322;2023-04-20T09:42:14;100770.03;;;24.83;26.73
56518;BME280;42419;48.760;2.322;2023-04-20T09:44:41;100799.44;;;25.02;26.31
56518;BME280;42419;48.760;2.322;2023-04-20T09:47:07;100797.19;;;25.10;26.99
56518;BME280;42419;48.760;2.322;2023-04-20T09:49:33;100793.66;;;25.08;26.59
56518;BME280;42419;48.760;2.322;2023-04-20T09:52:01;100793.88;;;25.05;26.46
56518;BME280;42419;48.760;2.322;2023-04-20T09:54:27;100757.16;;;24.88;26.48
56518;BME280;42419;48.760;2.322;2023-04-20T09:56:53;100772.31;;;25.05;26.79
56518;BME280;42419;48.760;2.322;2023-04-20T09:59:20;100773.19;;;25.05;26.71
56518;BME280;42419;48.760;2.322;2023-04-20T10:01:45;100728.41;;;24.89;26.27
56518;BME280;42419;48.760;2.322;2023-04-20T10:04:11;100750.75;;;25.05;26.46
56518;BME280;42419;48.760;2.322;2023-04-20T10:06:39;100755.19;;;25.06;26.62
56518;BME280;42419;48.760;2.322;2023-04-20T10:09:23;100751.63;;;25.05;26.50
56518;BME280;42419;48.760;2.322;2023-04-20T10:11:50;100732.72;;;24.91;26.84
56518;BME280;42419;48.760;2.322;2023-04-20T10:16:43;100758.91;;;25.03;27.01
56518;BME280;42419;48.760;2.322;2023-04-20T10:19:09;100748.16;;;25.03;26.70
56518;BME280;42419;48.760;2.322;2023-04-20T10:21:47;100734.19;;;24.97;26.91
56518;BME280;42419;48.760;2.322;2023-04-20T10:24:13;100733.84;;;25.03;27.02
56518;BME280;42419;48.760;2.322;2023-04-20T10:26:43;100736.59;;;25.01;27.23
56518;BME280;42419;48.760;2.322;2023-04-20T10:29:10;100728.72;;;24.98;26.65
56518;BME280;42419;48.760;2.322;2023-04-20T10:31:40;100734.13;;;24.98;27.29
56518;BME280;42419;48.760;2.322;2023-04-20T10:34:07;100732.38;;;24.97;27.37
56518;BME280;42419;48.760;2.322;2023-04-20T10:36:34;100731.56;;;24.95;27.13
56518;BME280;42419;48.760;2.322;2023-04-20T10:39:17;100703.31;;;24.73;27.47
56518;BME280;42419;48.760;2.322;2023-04-20T10:41:53;100725.44;;;24.93;27.03
56518;BME280;42419;48.760;2.322;2023-04-20T10:51:10;100725.31;;;24.81;27.36
56518;BME280;42419;48.760;2.322;2023-04-20T10:53:35;100709.78;;;24.70;27.77
56518;BME280;42419;48.760;2.322;2023-04-20T10:56:00;100713.16;;;24.74;27.87
56518;BME280;42419;48.760;2.322;2023-04-20T10:58:26;100711.53;;;24.71;27.68
56518;BME280;42419;48.760;2.322;2023-04-20T11:01:03;100716.91;;;24.71;27.51
56518;BME280;42419;48.760;2.322;2023-04-20T11:03:29;100713.34;;;24.71;27.24
56518;BME280;42419;48.760;2.322;2023-04-20T11:05:56;100710.41;;;24.59;27.49
56518;BME280;42419;48.760;2.322;2023-04-20T11:08:34;100715.44;;;24.66;27.86
56518;BME280;42419;48.760;2.322;2023-04-20T11:11:00;100728.81;;;24.67;27.30
56518;BME280;42419;48.760;2.322;2023-04-20T11:13:25;100723.31;;;24.69;27.17
56518;BME280;42419;48.760;2.322;2023-04-20T11:15:53;100716.03;;;24.71;25.74
56518;BME280;42419;48.760;2.322;2023-04-20T11:18:18;100711.69;;;24.68;26.29
56518;BME280;42419;48.760;2.322;2023-04-20T11:20:56;100711.78;;;24.67;25.88
56518;BME280;42419;48.760;2.322;2023-04-20T11:23:23;100707.34;;;24.66;26.64
56518;BME280;42419;48.760;2.322;2023-04-20T11:25:54;100717.19;;;24.67;25.91
56518;BME280;42419;48.760;2.322;2023-04-20T11:28:20;100689.94;;;24.57;26.36
56518;BME280;42419;48.760;2.322;2023-04-20T11:30:46;100708.91;;;24.70;26.48
56518;BME280;42419;48.760;2.322;2023-04-20T11:33:31;100714.38;;;24.68;26.85
56518;BME280;42419;48.760;2.322;2023-04-20T11:35:58;100709.97;;;24.67;26.95
56518;BME280;42419;48.760;2.322;2023-04-20T11:38:31;100708.91;;;24.70;26.43
56518;BME280;42419;48.760;2.322;2023-04-20T11:40:56;100707.00;;;24.72;26.68
56518;BME280;42419;48.760;2.322;2023-04-20T11:43:29;100711.25;;;24.76;26.65
56518;BME280;42419;48.760;2.322;2023-04-20T11:45:56;100705.66;;;24.79;26.50
56518;BME280;42419;48.760;2.322;2023-04-20T11:48:21;100692.28;;;24.77;26.82
56518;BME280;42419;48.760;2.322;2023-04-20T11:50:46;100688.72;;;24.77;26.88
56518;BME280;42419;48.760;2.322;2023-04-20T11:53:12;100694.63;;;24.83;26.42
56518;BME280;42419;48.760;2.322;2023-04-20T11:55:39;100673.28;;;24.80;27.00
56518;BME280;42419;48.760;2.322;2023-04-20T11:58:05;100684.53;;;24.87;26.60
56518;BME280;42419;48.760;2.322;2023-04-20T12:00:30;100680.78;;;24.89;26.20
56518;BME280;42419;48.760;2.322;2023-04-20T12:02:56;100688.00;;;24.89;26.69
56518;BME280;42419;48.760;2.322;2023-04-20T12:05:21;100690.97;;;24.84;26.54
56518;BME280;42419;48.760;2.322;2023-04-20T12:07:46;100696.25;;;24.86;27.22
56518;BME280;42419;48.760;2.322;2023-04-20T12:10:12;100681.06;;;24.85;26.97
56518;BME280;42419;48.760;2.322;2023-04-20T12:12:37;100684.53;;;24.87;27.02
56518;BME280;42419;48.760;2.322;2023-04-20T12:15:03;100679.72;;;24.92;26.63
56518;BME280;42419;48.760;2.322;2023-04-20T12:17:28;100673.38;;;24.93;26.78
56518;BME280;42419;48.760;2.322;2023-04-20T12:19:54;100668.00;;;24.93;26.82
56518;BME280;42419;48.760;2.322;2023-04-20T12:22:19;100661.81;;;24.91;26.26
56518;BME280;42419;48.760;2.322;2023-04-20T12:24:44;100660.13;;;24.90;27.09
56518;BME280;42419;48.760;2.322;2023-04-20T12:27:10;100662.97;;;24.87;26.68
56518;BME280;42419;48.760;2.322;2023-04-20T12:29:35;100660.41;;;24.85;26.84
56518;BME280;42419;48.760;2.322;2023-04-20T12:32:00;100670.66;;;24.79;26.59
56518;BME280;42419;48.760;2.322;2023-04-20T12:34:26;100666.34;;;24.76;27.24
56518;BME280;42419;48.760;2.322;2023-04-20T12:36:51;100657.97;;;24.81;27.03
56518;BME280;42419;48.760;2.322;2023-04-20T12:39:16;100662.56;;;24.79;27.17
56518;BME280;42419;48.760;2.322;2023-04-20T12:41:42;100660.16;;;24.74;26.78
56518;BME280;42419;48.760;2.322;2023-04-20T12:44:07;100673.53;;;24.76;26.89
56518;BME280;42419;48.760;2.322;2023-04-20T12:46:32;100677.09;;;24.76;27.37
56518;BME280;42419;48.760;2.322;2023-04-20T12:48:57;100660.53;;;24.68;27.41
56518;BME280;42419;48.760;2.322;2023-04-20T12:51:23;100670.97;;;24.88;26.68
56518;BME280;42419;48.760;2.322;2023-04-20T12:53:48;100668.09;;;24.91;27.17
56518;BME280;42419;48.760;2.322;2023-04-20T12:56:16;100670.69;;;24.93;26.70
56518;BME280;42419;48.760;2.322;2023-04-20T12:58:42;100669.81;;;24.92;26.93